Time;durP1;ratioP1;P1;durP2;ratioP2;P2;SDS_P1;SDS_P2;PMS_P1;PMS_P2;Temp;Humidity;BMP_temperature;BMP_pressure;BME280_temperature;BME280_humidity;BME280_pressure;Samples;Min_cycle;Max_cycle;Signal;HPM_P1;HPM_P2
2021/12/09 00:01:02;;;;;;;;;5.00;5.00;;;;;;;;5047466;28;49833;-64
2021/12/09 00:03:28;;;;;;;;;4.00;4.00;;;;;;;;5047589;28;49865;-64
2021/12/09 00:05:56;;;;;;;;;6.75;5.00;;;;;;;;5048825;28;50413;-65
2021/12/09 00:08:21;;;;;;;;;2.50;2.50;;;;;;;;5051071;27;49978;-65
2021/12/09 00:10:46;;;;;;;;;4.50;2.50;;;;;;;;5050318;28;49716;-64
2021/12/09 00:13:12;;;;;;;;;4.25;4.25;;;;;;;;5050624;28;49543;-63
2021/12/09 00:15:37;;;;;;;;;2.25;2.00;;;;;;;;5050104;28;50372;-64
2021/12/09 00:18:02;;;;;;;;;7.25;5.00;;;;;;;;5032013;28;49687;-63
2021/12/09 00:20:28;;;;;;;;;5.25;4.75;;;;;;;;5050174;28;50291;-64
2021/12/09 00:22:53;;;;;;;;;4.50;1.75;;;;;;;;5050343;28;50014;-64
2021/12/09 00:25:18;;;;;;;;;1.25;1.25;;;;;;;;5049701;28;50660;-64
2021/12/09 00:27:43;;;;;;;;;4.00;4.00;;;;;;;;5049996;28;49964;-64
2021/12/09 00:30:10;;;;;;;;;4.00;1.75;;;;;;;;5032231;28;49923;-63
2021/12/09 00:32:35;;;;;;;;;6.50;5.25;;;;;;;;5050316;28;49674;-63
2021/12/09 00:35:03;;;;;;;;;2.75;2.75;;;;;;;;5049993;28;49915;-64
2021/12/09 00:37:35;;;;;;;;;6.00;6.00;;;;;;;;5050156;28;49700;-64
2021/12/09 00:40:01;;;;;;;;;1.50;1.25;;;;;;;;5050076;28;49856;-64
2021/12/09 00:42:26;;;;;;;;;4.75;2.00;;;;;;;;5050162;28;49569;-63
2021/12/09 00:44:52;;;;;;;;;2.00;2.00;;;;;;;;5049589;28;50297;-63
2021/12/09 00:47:18;;;;;;;;;1.00;1.00;;;;;;;;5049997;28;49796;-63
2021/12/09 00:49:43;;;;;;;;;1.75;1.75;;;;;;;;5049910;28;49804;-64
2021/12/09 00:52:09;;;;;;;;;4.00;1.50;;;;;;;;5049954;28;50172;-64
2021/12/09 00:54:35;;;;;;;;;1.75;1.75;;;;;;;;5049553;28;51773;-65
2021/12/09 00:57:00;;;;;;;;;2.00;1.25;;;;;;;;5049563;28;49764;-66
2021/12/09 00:59:25;;;;;;;;;1.00;1.00;;;;;;;;5049782;28;50282;-63
2021/12/09 01:01:51;;;;;;;;;2.25;2.25;;;;;;;;5049884;28;49535;-64
2021/12/09 01:04:16;;;;;;;;;1.00;1.00;;;;;;;;5049476;28;50790;-68
2021/12/09 01:06:41;;;;;;;;;4.00;1.50;;;;;;;;5049373;28;49685;-67
2021/12/09 01:09:07;;;;;;;;;1.50;1.50;;;;;;;;5049812;28;49759;-64
2021/12/09 01:11:32;;;;;;;;;2.00;1.00;;;;;;;;5049381;28;49771;-66
2021/12/09 01:13:57;;;;;;;;;4.25;4.25;;;;;;;;5049421;28;49890;-64
2021/12/09 01:16:23;;;;;;;;;2.00;2.00;;;;;;;;5048434;28;49743;-64
2021/12/09 01:18:48;;;;;;;;;2.00;2.00;;;;;;;;5031165;28;49806;-66
2021/12/09 01:21:13;;;;;;;;;1.25;1.25;;;;;;;;5049019;28;49764;-64
2021/12/09 01:23:40;;;;;;;;;2.00;2.00;;;;;;;;5049261;28;50834;-67
2021/12/09 01:26:06;;;;;;;;;2.50;2.50;;;;;;;;5030864;28;49914;-67
2021/12/09 01:28:40;;;;;;;;;1.75;1.00;;;;;;;;5049369;28;49698;-64
2021/12/09 01:31:06;;;;;;;;;2.00;2.00;;;;;;;;5049569;28;49576;-68
2021/12/09 01:33:33;;;;;;;;;2.00;2.00;;;;;;;;5031171;28;52481;-66
2021/12/09 01:35:58;;;;;;;;;4.75;2.00;;;;;;;;5048981;28;49674;-64
2021/12/09 01:38:27;;;;;;;;;2.00;2.00;;;;;;;;5049226;28;49951;-64
2021/12/09 01:40:53;;;;;;;;;1.00;1.00;;;;;;;;5049533;28;49793;-67
2021/12/09 01:43:18;;;;;;;;;4.50;2.00;;;;;;;;5049167;28;49731;-64
2021/12/09 01:45:43;;;;;;;;;2.00;1.00;;;;;;;;5049098;28;49675;-65
2021/12/09 01:48:08;;;;;;;;;1.50;1.50;;;;;;;;5031065;28;49763;-64
2021/12/09 01:50:35;;;;;;;;;2.00;2.00;;;;;;;;5049357;28;49966;-63
2021/12/09 01:53:00;;;;;;;;;1.00;1.00;;;;;;;;5030771;28;52000;-66
2021/12/09 01:55:26;;;;;;;;;2.00;2.00;;;;;;;;5048901;28;49652;-64
2021/12/09 01:57:54;;;;;;;;;2.00;2.00;;;;;;;;5049315;28;49835;-69
2021/12/09 02:00:21;;;;;;;;;2.00;1.00;;;;;;;;5049362;28;49816;-64
2021/12/09 02:02:47;;;;;;;;;1.00;1.00;;;;;;;;5049069;28;50616;-65
2021/12/09 02:05:12;;;;;;;;;1.00;1.00;;;;;;;;5048762;28;49856;-69
2021/12/09 02:07:38;;;;;;;;;2.00;1.00;;;;;;;;5049169;28;50407;-65
2021/12/09 02:10:05;;;;;;;;;1.00;1.00;;;;;;;;5049022;28;49580;-65
2021/12/09 02:12:30;;;;;;;;;1.00;1.00;;;;;;;;5048722;28;50672;-66
2021/12/09 02:14:59;;;;;;;;;1.50;0.00;;;;;;;;5048929;28;49796;-65
2021/12/09 02:17:26;;;;;;;;;1.25;1.25;;;;;;;;5048878;28;49767;-63
2021/12/09 02:19:52;;;;;;;;;2.50;2.50;;;;;;;;5048847;28;49802;-64
2021/12/09 02:22:17;;;;;;;;;0.75;0.75;;;;;;;;5048558;28;49640;-65
2021/12/09 02:24:42;;;;;;;;;3.25;1.00;;;;;;;;5048502;28;50085;-66
2021/12/09 02:27:08;;;;;;;;;3.25;3.25;;;;;;;;5048542;28;49683;-64
2021/12/09 02:29:33;;;;;;;;;0.50;0.50;;;;;;;;5048755;28;49887;-64
2021/12/09 02:32:01;;;;;;;;;1.00;1.00;;;;;;;;5048533;28;49943;-66
2021/12/09 02:34:26;;;;;;;;;1.50;0.00;;;;;;;;5048681;28;49736;-65
2021/12/09 02:36:52;;;;;;;;;4.00;1.25;;;;;;;;5048196;28;49763;-67
2021/12/09 02:39:18;;;;;;;;;0.00;0.00;;;;;;;;5030756;28;50052;-66
2021/12/09 02:41:44;;;;;;;;;1.00;1.00;;;;;;;;5048497;28;49651;-64
2021/12/09 02:44:11;;;;;;;;;1.25;1.00;;;;;;;;5048427;28;49597;-64
2021/12/09 02:46:38;;;;;;;;;1.00;1.00;;;;;;;;5048500;28;49826;-66
2021/12/09 02:49:09;;;;;;;;;5.00;3.25;;;;;;;;5048584;28;49805;-64
2021/12/09 02:51:35;;;;;;;;;0.00;0.00;;;;;;;;5047943;28;50685;-64
2021/12/09 02:54:00;;;;;;;;;1.25;1.00;;;;;;;;5048403;28;49714;-65
2021/12/09 02:56:25;;;;;;;;;1.00;1.00;;;;;;;;5048462;28;49780;-65
2021/12/09 02:58:51;;;;;;;;;1.00;1.00;;;;;;;;5048623;28;49996;-65
2021/12/09 03:01:21;;;;;;;;;0.75;0.75;;;;;;;;5048120;28;50324;-64
2021/12/09 03:03:56;;;;;;;;;1.00;1.00;;;;;;;;5048229;28;49853;-64
2021/12/09 03:06:25;;;;;;;;;2.00;2.00;;;;;;;;5047774;28;49713;-66
2021/12/09 03:08:50;;;;;;;;;2.00;1.00;;;;;;;;5048515;28;49931;-64
2021/12/09 03:11:19;;;;;;;;;1.25;0.00;;;;;;;;5048158;28;49909;-73
2021/12/09 03:13:45;;;;;;;;;2.00;1.00;;;;;;;;5048124;28;49470;-72
2021/12/09 03:16:10;;;;;;;;;0.00;0.00;;;;;;;;5048391;28;49955;-73
2021/12/09 03:18:44;;;;;;;;;1.00;1.00;;;;;;;;5048364;28;49863;-73
2021/12/09 03:21:29;;;;;;;;;1.00;1.00;;;;;;;;5047559;28;50993;-65
2021/12/09 03:23:55;;;;;;;;;1.50;0.00;;;;;;;;5047989;28;49783;-64
2021/12/09 03:26:25;;;;;;;;;0.00;0.00;;;;;;;;5047694;28;49954;-64
2021/12/09 03:28:51;;;;;;;;;1.75;1.75;;;;;;;;5048143;28;49865;-63
2021/12/09 03:31:17;;;;;;;;;0.00;0.00;;;;;;;;5047779;28;49996;-64
2021/12/09 03:33:42;;;;;;;;;0.50;0.50;;;;;;;;5047860;28;49695;-64
2021/12/09 03:36:10;;;;;;;;;1.50;1.50;;;;;;;;5047738;28;49885;-65
2021/12/09 03:38:35;;;;;;;;;2.75;0.00;;;;;;;;5048057;28;49565;-64
2021/12/09 03:41:01;;;;;;;;;1.50;1.00;;;;;;;;5046548;28;50293;-63
2021/12/09 03:43:26;;;;;;;;;1.50;1.50;;;;;;;;5047712;28;49552;-64
2021/12/09 03:45:55;;;;;;;;;0.25;0.25;;;;;;;;5046729;28;49762;-64
2021/12/09 03:48:20;;;;;;;;;0.75;0.75;;;;;;;;5047921;28;49719;-64
2021/12/09 03:50:45;;;;;;;;;2.00;1.00;;;;;;;;5047292;28;50362;-64
2021/12/09 03:53:11;;;;;;;;;0.75;0.75;;;;;;;;5047765;28;49780;-64
2021/12/09 03:55:37;;;;;;;;;1.00;1.00;;;;;;;;5047612;28;49709;-64
2021/12/09 03:58:02;;;;;;;;;1.75;0.75;;;;;;;;5047771;28;49602;-63
2021/12/09 04:00:28;;;;;;;;;0.50;0.50;;;;;;;;5047152;28;50497;-64
2021/12/09 04:02:54;;;;;;;;;2.50;1.00;;;;;;;;5047504;28;49683;-64
2021/12/09 04:05:19;;;;;;;;;1.25;0.75;;;;;;;;5047276;28;49648;-65
2021/12/09 04:07:44;;;;;;;;;2.00;1.00;;;;;;;;5047523;28;49479;-64
2021/12/09 04:10:09;;;;;;;;;0.00;0.00;;;;;;;;5047322;28;49738;-67
2021/12/09 04:12:34;;;;;;;;;0.25;0.00;;;;;;;;5047347;28;49843;-73
2021/12/09 04:15:00;;;;;;;;;1.00;0.00;;;;;;;;5047133;28;49857;-70
2021/12/09 04:17:25;;;;;;;;;2.00;1.50;;;;;;;;5047460;28;49851;-73
2021/12/09 04:19:51;;;;;;;;;0.50;0.50;;;;;;;;5046525;28;49715;-74
2021/12/09 04:22:18;;;;;;;;;1.00;1.00;;;;;;;;5047163;28;49636;-72
2021/12/09 04:24:43;;;;;;;;;1.00;1.00;;;;;;;;5029024;28;49858;-73
2021/12/09 04:27:08;;;;;;;;;1.00;1.00;;;;;;;;5047005;28;49750;-73
2021/12/09 04:29:33;;;;;;;;;4.50;2.00;;;;;;;;5046906;28;49805;-73
2021/12/09 04:31:59;;;;;;;;;2.25;1.50;;;;;;;;5028836;28;49850;-71
2021/12/09 04:34:24;;;;;;;;;1.25;1.00;;;;;;;;5047037;28;49678;-74
2021/12/09 04:36:49;;;;;;;;;1.00;1.00;;;;;;;;5047013;28;49597;-71
2021/12/09 04:39:15;;;;;;;;;0.00;0.00;;;;;;;;5046581;28;49822;-70
2021/12/09 04:41:40;;;;;;;;;0.25;0.25;;;;;;;;5046832;28;50154;-72
2021/12/09 04:44:06;;;;;;;;;2.00;2.00;;;;;;;;5046961;28;49695;-67
2021/12/09 04:46:31;;;;;;;;;3.75;2.50;;;;;;;;5046944;28;49722;-70
2021/12/09 04:48:56;;;;;;;;;1.25;1.00;;;;;;;;5046591;28;50589;-71
2021/12/09 04:51:22;;;;;;;;;2.00;1.00;;;;;;;;5047989;28;49909;-72
2021/12/09 04:53:47;;;;;;;;;2.00;2.00;;;;;;;;5049979;28;49701;-72
2021/12/09 04:56:12;;;;;;;;;0.25;0.25;;;;;;;;5050226;28;49751;-65
2021/12/09 04:58:37;;;;;;;;;2.00;1.00;;;;;;;;5049720;28;49974;-66
2021/12/09 05:01:04;;;;;;;;;3.00;3.00;;;;;;;;5050115;28;49737;-64
2021/12/09 05:03:29;;;;;;;;;1.25;1.00;;;;;;;;5049961;28;49984;-67
2021/12/09 05:05:55;;;;;;;;;2.00;1.00;;;;;;;;5049852;28;49611;-64
2021/12/09 05:08:21;;;;;;;;;1.25;1.25;;;;;;;;5049763;28;50137;-64
2021/12/09 05:13:24;;;;;;;;;0.00;0.00;;;;;;;;5049732;28;49586;-65
2021/12/09 05:15:50;;;;;;;;;0.50;0.50;;;;;;;;5049851;28;49698;-65
2021/12/09 05:18:15;;;;;;;;;1.75;1.00;;;;;;;;5031273;28;50807;-65
2021/12/09 05:20:41;;;;;;;;;1.00;1.00;;;;;;;;5049293;28;49684;-68
2021/12/09 05:23:06;;;;;;;;;2.50;1.00;;;;;;;;5049675;28;49659;-65
2021/12/09 05:25:32;;;;;;;;;0.50;0.00;;;;;;;;5049697;28;49901;-64
2021/12/09 05:27:57;;;;;;;;;0.75;0.75;;;;;;;;5049144;28;49853;-64
2021/12/09 05:30:25;;;;;;;;;2.00;1.00;;;;;;;;5049324;28;49653;-65
2021/12/09 05:32:50;;;;;;;;;0.00;0.00;;;;;;;;5049544;28;49822;-64
2021/12/09 05:35:16;;;;;;;;;1.00;1.00;;;;;;;;5049437;28;49780;-64
2021/12/09 05:37:42;;;;;;;;;5.00;1.25;;;;;;;;5049083;28;50428;-65
2021/12/09 05:40:07;;;;;;;;;0.50;0.50;;;;;;;;5048822;28;49722;-64
2021/12/09 05:42:33;;;;;;;;;6.75;2.00;;;;;;;;5049435;28;49751;-65
2021/12/09 05:44:59;;;;;;;;;2.00;1.50;;;;;;;;5049485;28;49635;-65
2021/12/09 05:47:24;;;;;;;;;3.50;3.50;;;;;;;;5049055;28;49706;-66
2021/12/09 05:49:50;;;;;;;;;0.75;0.75;;;;;;;;5049108;28;49575;-64
2021/12/09 05:52:15;;;;;;;;;0.75;0.75;;;;;;;;5049266;28;49809;-64
2021/12/09 05:54:41;;;;;;;;;4.75;2.50;;;;;;;;5049161;28;49589;-64
2021/12/09 05:57:06;;;;;;;;;1.25;1.00;;;;;;;;5049044;28;49746;-65
2021/12/09 05:59:31;;;;;;;;;2.00;2.00;;;;;;;;5049136;28;49802;-64
2021/12/09 06:01:57;;;;;;;;;1.00;1.00;;;;;;;;5048985;28;49736;-64
2021/12/09 06:04:23;;;;;;;;;0.00;0.00;;;;;;;;5051882;28;49787;-65
2021/12/09 06:06:49;;;;;;;;;2.50;2.25;;;;;;;;5048554;28;50536;-73
2021/12/09 06:09:14;;;;;;;;;1.25;1.25;;;;;;;;5050703;28;49675;-66
2021/12/09 06:11:41;;;;;;;;;4.00;1.75;;;;;;;;5048979;28;49551;-68
2021/12/09 06:14:06;;;;;;;;;3.00;1.50;;;;;;;;5031207;28;49931;-74
2021/12/09 06:16:32;;;;;;;;;1.00;1.00;;;;;;;;5048754;28;50266;-74
2021/12/09 06:18:57;;;;;;;;;5.00;3.00;;;;;;;;5049880;28;49633;-70
2021/12/09 06:21:27;;;;;;;;;2.75;1.75;;;;;;;;5048591;28;49861;-74
2021/12/09 06:23:52;;;;;;;;;2.00;1.75;;;;;;;;5049103;28;50544;-73
2021/12/09 06:26:17;;;;;;;;;5.00;5.00;;;;;;;;5048323;28;50531;-68
2021/12/09 06:28:42;;;;;;;;;2.00;2.00;;;;;;;;5048941;28;49712;-66
2021/12/09 06:31:07;;;;;;;;;4.25;1.75;;;;;;;;5050543;28;49734;-67
2021/12/09 06:33:33;;;;;;;;;6.00;2.00;;;;;;;;5048864;28;49769;-64
2021/12/09 06:35:59;;;;;;;;;2.00;2.00;;;;;;;;5048046;28;50992;-65
2021/12/09 06:38:25;;;;;;;;;3.25;3.25;;;;;;;;5059379;27;49976;-64
2021/12/09 06:40:50;;;;;;;;;3.75;1.00;;;;;;;;5042879;27;49933;-65
2021/12/09 06:43:16;;;;;;;;;1.25;0.50;;;;;;;;5035467;28;49536;-65
2021/12/09 06:45:42;;;;;;;;;7.00;5.00;;;;;;;;5018215;28;51342;-65
2021/12/09 06:48:07;;;;;;;;;2.50;2.50;;;;;;;;5027074;28;49671;-65
2021/12/09 06:50:32;;;;;;;;;2.00;2.00;;;;;;;;5028292;27;49764;-65
2021/12/09 06:52:57;;;;;;;;;1.50;1.50;;;;;;;;5010634;28;50024;-65
2021/12/09 06:55:23;;;;;;;;;6.00;3.75;;;;;;;;5028086;28;50052;-64
2021/12/09 06:57:48;;;;;;;;;4.25;3.25;;;;;;;;5012363;28;49801;-63
2021/12/09 07:00:19;;;;;;;;;1.50;1.50;;;;;;;;5036695;28;49672;-67
2021/12/09 07:02:44;;;;;;;;;5.50;4.00;;;;;;;;5028671;28;49602;-65
2021/12/09 07:05:11;;;;;;;;;5.25;5.25;;;;;;;;5027760;28;50366;-69
2021/12/09 07:07:36;;;;;;;;;2.50;2.50;;;;;;;;5028429;28;49732;-66
2021/12/09 07:10:01;;;;;;;;;3.25;3.25;;;;;;;;5028230;28;49606;-65
2021/12/09 07:12:27;;;;;;;;;6.25;5.50;;;;;;;;5028438;27;49567;-65
2021/12/09 07:14:52;;;;;;;;;6.75;5.00;;;;;;;;5026535;28;50799;-64
2021/12/09 07:17:17;;;;;;;;;9.25;4.75;;;;;;;;5027994;27;49835;-69
2021/12/09 07:19:43;;;;;;;;;5.00;5.00;;;;;;;;5015768;27;49723;-67
2021/12/09 07:22:08;;;;;;;;;2.00;2.00;;;;;;;;5015669;28;49700;-70
2021/12/09 07:24:33;;;;;;;;;5.50;4.00;;;;;;;;5027729;28;49774;-71
2021/12/09 07:26:59;;;;;;;;;2.50;2.50;;;;;;;;5027560;28;49686;-71
2021/12/09 07:29:25;;;;;;;;;3.50;2.50;;;;;;;;5027137;28;49801;-71
2021/12/09 07:31:51;;;;;;;;;4.75;3.25;;;;;;;;5010231;28;49801;-70
2021/12/09 07:34:16;;;;;;;;;5.25;5.00;;;;;;;;5027576;28;50612;-70
2021/12/09 07:36:42;;;;;;;;;7.25;4.50;;;;;;;;5027315;28;49873;-66
2021/12/09 07:39:07;;;;;;;;;6.25;5.25;;;;;;;;5027751;28;49736;-64
2021/12/09 07:41:32;;;;;;;;;7.00;5.50;;;;;;;;5029630;27;49669;-65
2021/12/09 07:43:57;;;;;;;;;4.75;4.75;;;;;;;;5046193;28;49705;-66
2021/12/09 07:46:23;;;;;;;;;6.50;5.75;;;;;;;;5047414;28;49739;-66
2021/12/09 07:48:48;;;;;;;;;7.50;5.75;;;;;;;;5097798;27;49803;-68
2021/12/09 07:51:13;;;;;;;;;7.00;7.00;;;;;;;;5028085;27;49754;-61
2021/12/09 07:53:38;;;;;;;;;9.50;5.75;;;;;;;;5046490;28;50361;-62
2021/12/09 07:56:04;;;;;;;;;6.00;3.50;;;;;;;;5047586;28;49739;-65
2021/12/09 07:58:32;;;;;;;;;10.00;6.50;;;;;;;;5045539;28;50204;-66
2021/12/09 08:00:57;;;;;;;;;6.00;6.00;;;;;;;;5065153;28;49533;-66
2021/12/09 08:03:22;;;;;;;;;6.75;5.00;;;;;;;;5066420;28;49929;-68
2021/12/09 08:05:48;;;;;;;;;5.00;5.00;;;;;;;;5067121;28;49762;-65
2021/12/09 08:08:14;;;;;;;;;5.75;5.75;;;;;;;;5066547;28;49999;-66
2021/12/09 08:10:39;;;;;;;;;6.25;2.75;;;;;;;;5061593;28;49693;-65
2021/12/09 08:13:05;;;;;;;;;5.75;5.75;;;;;;;;5045750;27;50538;-65
2021/12/09 08:15:34;;;;;;;;;7.25;6.00;;;;;;;;5053598;28;49838;-64
2021/12/09 08:18:14;;;;;;;;;9.25;8.00;;;;;;;;5046399;28;49652;-64
2021/12/09 08:20:40;;;;;;;;;7.50;6.00;;;;;;;;5064939;28;49778;-64
2021/12/09 08:23:05;;;;;;;;;6.50;4.75;;;;;;;;5067393;28;49788;-64
2021/12/09 08:25:30;;;;;;;;;6.50;5.75;;;;;;;;5067111;28;49762;-64
2021/12/09 08:27:55;;;;;;;;;5.25;5.25;;;;;;;;5051023;28;49873;-65
2021/12/09 08:30:25;;;;;;;;;9.50;6.00;;;;;;;;5071250;28;49771;-64
2021/12/09 08:32:50;;;;;;;;;5.00;5.00;;;;;;;;5146517;27;50507;-66
2021/12/09 08:35:16;;;;;;;;;8.75;7.25;;;;;;;;5156634;27;49836;-64
2021/12/09 08:37:43;;;;;;;;;6.50;6.25;;;;;;;;5155862;27;49720;-64
2021/12/09 08:40:08;;;;;;;;;7.25;5.25;;;;;;;;5156722;27;49958;-64
2021/12/09 08:42:34;;;;;;;;;7.00;5.75;;;;;;;;5156077;27;49638;-64
2021/12/09 08:44:59;;;;;;;;;8.50;5.00;;;;;;;;5076630;27;49806;-63
2021/12/09 08:47:25;;;;;;;;;3.50;3.50;;;;;;;;5038079;27;49877;-66
2021/12/09 08:49:50;;;;;;;;;4.50;2.00;;;;;;;;5019591;28;49744;-63
2021/12/09 08:52:15;;;;;;;;;6.50;6.00;;;;;;;;5032878;27;49807;-64
2021/12/09 08:54:41;;;;;;;;;4.50;4.50;;;;;;;;5070042;27;49816;-64
2021/12/09 08:57:06;;;;;;;;;8.75;4.00;;;;;;;;5043410;27;49711;-64
2021/12/09 08:59:32;;;;;;;;;4.50;4.50;;;;;;;;5047186;27;49928;-64
2021/12/09 09:01:57;;;;;;;;;4.00;2.75;;;;;;;;5046637;27;50046;-65
2021/12/09 09:04:22;;;;;;;;;5.75;5.00;;;;;;;;5035146;28;49634;-63
2021/12/09 09:06:56;;;;;;;;;5.50;5.50;;;;;;;;5034749;27;49977;-64
2021/12/09 09:09:24;;;;;;;;;7.50;5.00;;;;;;;;5040295;27;49827;-62
2021/12/09 09:11:49;;;;;;;;;5.50;3.50;;;;;;;;5021612;27;51896;-62
2021/12/09 09:14:14;;;;;;;;;5.00;5.00;;;;;;;;5042018;27;49758;-62
2021/12/09 09:16:39;;;;;;;;;2.00;2.00;;;;;;;;5043238;27;49608;-63
2021/12/09 09:19:05;;;;;;;;;7.25;4.00;;;;;;;;5050098;28;49895;-62
2021/12/09 09:21:31;;;;;;;;;5.00;5.00;;;;;;;;5052132;27;49812;-63
2021/12/09 09:23:57;;;;;;;;;3.00;3.00;;;;;;;;5123714;27;49754;-63
2021/12/09 09:26:22;;;;;;;;;10.25;5.75;;;;;;;;5049524;28;49905;-63
2021/12/09 09:28:48;;;;;;;;;6.00;5.00;;;;;;;;5118665;27;49877;-65
2021/12/09 09:31:14;;;;;;;;;3.50;3.00;;;;;;;;5047396;27;50426;-65
2021/12/09 09:33:39;;;;;;;;;5.50;5.50;;;;;;;;5104255;27;49817;-64
2021/12/09 09:36:05;;;;;;;;;6.00;2.50;;;;;;;;5049245;28;49854;-64
2021/12/09 09:38:30;;;;;;;;;5.00;3.50;;;;;;;;5048282;28;49649;-64
2021/12/09 09:41:10;;;;;;;;;6.00;3.50;;;;;;;;5047880;28;50435;-65
2021/12/09 09:43:55;;;;;;;;;5.25;3.50;;;;;;;;5047883;28;49781;-64
2021/12/09 09:46:22;;;;;;;;;3.25;3.25;;;;;;;;5048209;28;49722;-65
2021/12/09 09:48:49;;;;;;;;;5.75;2.00;;;;;;;;5116837;27;49745;-65
2021/12/09 09:51:14;;;;;;;;;4.50;4.50;;;;;;;;5048104;28;50611;-65
2021/12/09 09:53:41;;;;;;;;;6.50;5.00;;;;;;;;5048217;28;49814;-64
2021/12/09 09:56:13;;;;;;;;;3.00;3.00;;;;;;;;5048810;28;49768;-65
2021/12/09 09:58:39;;;;;;;;;9.25;5.25;;;;;;;;5049495;28;49920;-66
2021/12/09 10:01:04;;;;;;;;;3.50;3.50;;;;;;;;5048619;28;50225;-64
2021/12/09 10:03:31;;;;;;;;;6.50;3.50;;;;;;;;5049198;27;49770;-65
2021/12/09 10:05:58;;;;;;;;;5.00;5.00;;;;;;;;5118055;27;50028;-65
2021/12/09 10:08:23;;;;;;;;;3.00;3.00;;;;;;;;5048846;28;49674;-65
2021/12/09 10:10:49;;;;;;;;;3.50;3.50;;;;;;;;5048487;28;50711;-66
2021/12/09 10:13:15;;;;;;;;;6.75;6.00;;;;;;;;5118183;27;50004;-65
2021/12/09 10:15:51;;;;;;;;;7.00;6.00;;;;;;;;5048407;28;49565;-64
2021/12/09 10:18:34;;;;;;;;;3.00;3.00;;;;;;;;5044641;27;49917;-65
2021/12/09 10:21:00;;;;;;;;;5.25;3.50;;;;;;;;5048174;28;50402;-65
2021/12/09 10:23:36;;;;;;;;;5.50;4.50;;;;;;;;5048376;28;49629;-65
2021/12/09 10:26:21;;;;;;;;;1.50;1.00;;;;;;;;5048318;28;49681;-65
2021/12/09 10:29:03;;;;;;;;;4.75;3.00;;;;;;;;5048552;27;49981;-65
2021/12/09 10:31:31;;;;;;;;;3.25;3.25;;;;;;;;5117592;27;51667;-64
2021/12/09 10:34:08;;;;;;;;;2.25;2.25;;;;;;;;5048437;28;49602;-64
2021/12/09 10:36:40;;;;;;;;;5.25;3.00;;;;;;;;5117633;27;49624;-63
2021/12/09 10:39:17;;;;;;;;;6.25;6.25;;;;;;;;5048544;28;49708;-63
2021/12/09 10:41:42;;;;;;;;;6.00;5.00;;;;;;;;5048283;28;50605;-63
2021/12/09 10:44:07;;;;;;;;;6.00;6.00;;;;;;;;5048376;28;49578;-65
2021/12/09 10:46:51;;;;;;;;;5.25;3.50;;;;;;;;5117512;27;49772;-64
2021/12/09 10:49:17;;;;;;;;;5.25;5.25;;;;;;;;5117749;27;49772;-64
2021/12/09 10:51:55;;;;;;;;;4.50;2.75;;;;;;;;5048009;27;50005;-63
2021/12/09 10:54:35;;;;;;;;;5.25;2.75;;;;;;;;5048103;28;49746;-63
2021/12/09 10:57:19;;;;;;;;;4.25;4.25;;;;;;;;5117377;27;49776;-63
2021/12/09 10:59:44;;;;;;;;;2.75;1.75;;;;;;;;5048377;28;49675;-63
2021/12/09 11:02:11;;;;;;;;;5.50;5.00;;;;;;;;5048026;28;50587;-65
2021/12/09 11:04:36;;;;;;;;;6.50;5.00;;;;;;;;5047851;28;49517;-63
2021/12/09 11:07:18;;;;;;;;;3.25;2.25;;;;;;;;5048209;28;49643;-63
2021/12/09 11:09:43;;;;;;;;;6.00;3.00;;;;;;;;5048663;28;50004;-63
2021/12/09 11:12:24;;;;;;;;;12.50;10.50;;;;;;;;5047863;28;50601;-63
2021/12/09 11:14:59;;;;;;;;;10.25;7.00;;;;;;;;5041340;28;49765;-63
2021/12/09 11:17:35;;;;;;;;;5.25;5.00;;;;;;;;5030001;28;49984;-65
2021/12/09 11:20:00;;;;;;;;;7.00;5.75;;;;;;;;5027696;28;49636;-63
2021/12/09 11:22:30;;;;;;;;;5.50;3.50;;;;;;;;5027600;27;49706;-64
2021/12/09 11:25:00;;;;;;;;;5.00;3.50;;;;;;;;5027854;28;49711;-64
2021/12/09 11:27:26;;;;;;;;;5.50;4.50;;;;;;;;5027361;28;49938;-64
2021/12/09 11:29:56;;;;;;;;;1.00;1.00;;;;;;;;5027669;28;49814;-64
2021/12/09 11:32:46;;;;;;;;;1.00;1.00;;;;;;;;5027591;28;49721;-65
2021/12/09 11:35:16;;;;;;;;;1.75;1.75;;;;;;;;5027543;28;49802;-64
2021/12/09 11:37:58;;;;;;;;;1.50;1.50;;;;;;;;5027227;28;49660;-64
2021/12/09 11:40:48;;;;;;;;;3.00;1.50;;;;;;;;5027710;28;50260;-64
2021/12/09 11:43:18;;;;;;;;;5.25;3.00;;;;;;;;5027283;28;50378;-64
2021/12/09 11:45:44;;;;;;;;;2.25;2.25;;;;;;;;5027449;28;49689;-65
2021/12/09 11:48:11;;;;;;;;;7.00;3.50;;;;;;;;5027572;28;49664;-65
2021/12/09 11:50:38;;;;;;;;;1.00;1.00;;;;;;;;5027457;28;49861;-64
2021/12/09 11:53:06;;;;;;;;;5.75;3.50;;;;;;;;5026967;28;50796;-65
2021/12/09 11:55:45;;;;;;;;;2.75;2.25;;;;;;;;5042570;28;49834;-65
2021/12/09 11:58:20;;;;;;;;;2.00;2.00;;;;;;;;5027333;28;49730;-65
2021/12/09 12:07:30;;;;;;;;;1.50;0.75;;;;;;;;5029853;28;49768;-65
2021/12/09 12:16:05;;;;;;;;;6.75;5.25;;;;;;;;5030059;28;50451;-64
2021/12/09 12:24:36;;;;;;;;;6.00;3.00;;;;;;;;5033430;27;49771;-64
2021/12/09 12:37:42;;;;;;;;;3.50;1.25;;;;;;;;5029578;28;50330;-68
2021/12/09 12:42:15;;;;;;;;;4.00;2.50;;;;;;;;5029803;28;49805;-66
2021/12/09 12:45:06;;;;;;;;;3.75;3.75;;;;;;;;5030310;28;49946;-66
2021/12/09 12:47:39;;;;;;;;;5.25;2.00;;;;;;;;5030231;27;50390;-65
2021/12/09 12:50:12;;;;;;;;;5.00;2.75;;;;;;;;5029720;27;49527;-65
2021/12/09 12:52:39;;;;;;;;;4.75;4.50;;;;;;;;5029757;28;49964;-66
2021/12/09 12:55:12;;;;;;;;;5.75;3.75;;;;;;;;5030017;28;49582;-71
2021/12/09 12:57:44;;;;;;;;;4.50;1.50;;;;;;;;5029562;28;49915;-65
2021/12/09 13:00:14;;;;;;;;;3.00;1.25;;;;;;;;5029851;28;49757;-64
2021/12/09 13:05:25;;;;;;;;;2.25;2.00;;;;;;;;5029792;28;49704;-65
2021/12/09 13:10:28;;;;;;;;;8.00;2.25;;;;;;;;5029590;28;49763;-65
2021/12/09 13:13:03;;;;;;;;;2.00;1.00;;;;;;;;5033384;27;49858;-64
2021/12/09 13:15:38;;;;;;;;;2.50;2.00;;;;;;;;5038340;28;49749;-65
2021/12/09 13:18:06;;;;;;;;;2.00;2.00;;;;;;;;5038281;27;49735;-65
2021/12/09 13:20:31;;;;;;;;;2.00;2.00;;;;;;;;5038857;27;49823;-65
2021/12/09 13:23:21;;;;;;;;;3.50;3.50;;;;;;;;5041980;27;49742;-65
2021/12/09 13:26:08;;;;;;;;;1.50;1.50;;;;;;;;5049096;27;49803;-65
2021/12/09 13:28:40;;;;;;;;;4.75;2.75;;;;;;;;5047330;27;50943;-64
2021/12/09 13:31:30;;;;;;;;;2.75;1.00;;;;;;;;5043996;27;49530;-65
2021/12/09 13:34:07;;;;;;;;;1.00;1.00;;;;;;;;5037914;28;49871;-64
2021/12/09 13:37:03;;;;;;;;;2.00;2.00;;;;;;;;5029082;28;49722;-65
2021/12/09 13:39:52;;;;;;;;;2.25;2.00;;;;;;;;5028376;28;49714;-64
2021/12/09 13:47:47;;;;;;;;;6.00;2.25;;;;;;;;5029244;28;49646;-65
2021/12/09 13:55:26;;;;;;;;;2.25;1.50;;;;;;;;5028761;28;49747;-65
2021/12/09 13:58:05;;;;;;;;;5.00;3.25;;;;;;;;5028993;28;49703;-65
2021/12/09 14:00:39;;;;;;;;;6.75;6.75;;;;;;;;5028890;28;50528;-65
2021/12/09 14:03:06;;;;;;;;;7.75;7.75;;;;;;;;5029057;28;49771;-65
2021/12/09 14:05:44;;;;;;;;;5.50;5.50;;;;;;;;5028794;28;49751;-65
2021/12/09 14:08:11;;;;;;;;;7.25;4.25;;;;;;;;5028714;28;49838;-66
2021/12/09 14:10:39;;;;;;;;;7.25;3.50;;;;;;;;5028569;28;50355;-65
2021/12/09 14:13:11;;;;;;;;;6.00;4.25;;;;;;;;5025646;27;49719;-66
2021/12/09 14:15:39;;;;;;;;;11.25;7.25;;;;;;;;5046055;27;49690;-66
2021/12/09 14:18:10;;;;;;;;;4.00;3.00;;;;;;;;5039786;28;49703;-66
2021/12/09 14:20:35;;;;;;;;;3.50;3.50;;;;;;;;5035623;27;49836;-67
2021/12/09 14:23:00;;;;;;;;;7.00;4.25;;;;;;;;5041119;27;50138;-67
2021/12/09 14:25:27;;;;;;;;;7.50;6.00;;;;;;;;5038956;28;49659;-67
2021/12/09 14:27:54;;;;;;;;;7.25;5.75;;;;;;;;5028571;28;50037;-66
2021/12/09 14:30:21;;;;;;;;;6.00;6.00;;;;;;;;5028406;28;49686;-66
2021/12/09 14:32:48;;;;;;;;;4.00;2.75;;;;;;;;5028489;28;49700;-65
2021/12/09 14:35:25;;;;;;;;;11.50;7.75;;;;;;;;5037607;27;49779;-66
2021/12/09 14:37:51;;;;;;;;;12.50;11.25;;;;;;;;5029210;28;49945;-66
2021/12/09 14:40:19;;;;;;;;;15.00;12.00;;;;;;;;5028723;28;49836;-66
2021/12/09 14:42:54;;;;;;;;;8.75;6.75;;;;;;;;5028473;28;49650;-66
2021/12/09 14:45:21;;;;;;;;;6.75;6.50;;;;;;;;5028866;28;49923;-65
2021/12/09 14:47:53;;;;;;;;;5.75;5.75;;;;;;;;5028498;28;49802;-66
2021/12/09 14:50:19;;;;;;;;;7.00;7.00;;;;;;;;5028075;28;49716;-66
2021/12/09 14:52:47;;;;;;;;;5.00;3.00;;;;;;;;5032802;27;49767;-67
2021/12/09 14:55:23;;;;;;;;;10.25;7.25;;;;;;;;5047027;27;49816;-66
2021/12/09 14:57:52;;;;;;;;;2.75;2.00;;;;;;;;5028544;28;49733;-66
2021/12/09 15:00:32;;;;;;;;;11.00;8.75;;;;;;;;5027902;28;49829;-68
2021/12/09 15:02:57;;;;;;;;;9.75;8.00;;;;;;;;5028350;28;49675;-66
2021/12/09 15:05:23;;;;;;;;;0.00;0.00;;;;;;;;5040478;27;49763;-66
2021/12/09 15:07:59;;;;;;;;;2.50;2.25;;;;;;;;5041457;28;49872;-66
2021/12/09 15:10:26;;;;;;;;;3.00;2.00;;;;;;;;5030029;28;50447;-67
2021/12/09 15:12:51;;;;;;;;;4.75;3.00;;;;;;;;5028222;28;49688;-66
2021/12/09 15:15:19;;;;;;;;;3.00;2.75;;;;;;;;5028580;28;49877;-67
2021/12/09 15:17:56;;;;;;;;;3.25;2.50;;;;;;;;5028268;28;49704;-66
2021/12/09 15:20:28;;;;;;;;;7.00;5.75;;;;;;;;5027906;28;50818;-66
2021/12/09 15:22:57;;;;;;;;;2.00;2.00;;;;;;;;5027585;28;49612;-66
2021/12/09 15:25:29;;;;;;;;;5.50;2.25;;;;;;;;5027693;28;49658;-66
2021/12/09 15:27:57;;;;;;;;;5.00;2.50;;;;;;;;5027863;28;49797;-65
2021/12/09 15:30:41;;;;;;;;;3.75;3.00;;;;;;;;5037237;28;50476;-66
2021/12/09 15:33:08;;;;;;;;;3.00;2.25;;;;;;;;5010133;28;50046;-66
2021/12/09 15:35:33;;;;;;;;;4.25;4.25;;;;;;;;5026675;28;50283;-66
2021/12/09 15:38:00;;;;;;;;;2.00;2.00;;;;;;;;5030685;27;49727;-65